sensor_id;sensor_type;location;lat;lon;timestamp;P1;durP1;ratioP1;P2;durP2;ratioP2
21806;SDS011;11065;50.786;7.840;2023-10-08T00:00:44;5.73;;;3.10;;
21806;SDS011;11065;50.786;7.840;2023-10-08T00:03:15;6.63;;;2.90;;
21806;SDS011;11065;50.786;7.840;2023-10-08T00:05:46;6.27;;;2.83;;
21806;SDS011;11065;50.786;7.840;2023-10-08T00:08:15;6.53;;;3.00;;
21806;SDS011;11065;50.786;7.840;2023-10-08T00:10:43;7.87;;;3.07;;
21806;SDS011;11065;50.786;7.840;2023-10-08T00:13:12;6.90;;;3.20;;
21806;SDS011;11065;50.786;7.840;2023-10-08T00:15:42;6.27;;;2.93;;
21806;SDS011;11065;50.786;7.840;2023-10-08T00:18:19;4.93;;;3.07;;
21806;SDS011;11065;50.786;7.840;2023-10-08T00:20:50;7.77;;;3.13;;
21806;SDS011;11065;50.786;7.840;2023-10-08T00:23:25;7.17;;;3.37;;
21806;SDS011;11065;50.786;7.840;2023-10-08T00:25:53;5.07;;;2.97;;
21806;SDS011;11065;50.786;7.840;2023-10-08T00:28:21;5.60;;;2.80;;
21806;SDS011;11065;50.786;7.840;2023-10-08T00:30:50;6.33;;;2.90;;
21806;SDS011;11065;50.786;7.840;2023-10-08T00:33:20;5.30;;;2.53;;
21806;SDS011;11065;50.786;7.840;2023-10-08T00:35:49;5.40;;;3.17;;
21806;SDS011;11065;50.786;7.840;2023-10-08T00:38:17;5.50;;;2.87;;
21806;SDS011;11065;50.786;7.840;2023-10-08T00:40:47;6.40;;;3.07;;
21806;SDS011;11065;50.786;7.840;2023-10-08T00:43:30;5.70;;;3.20;;
21806;SDS011;11065;50.786;7.840;2023-10-08T00:46:01;5.07;;;3.10;;
21806;SDS011;11065;50.786;7.840;2023-10-08T00:48:43;5.57;;;2.80;;
21806;SDS011;11065;50.786;7.840;2023-10-08T00:51:13;6.10;;;2.83;;
21806;SDS011;11065;50.786;7.840;2023-10-08T00:53:52;8.00;;;3.30;;
21806;SDS011;11065;50.786;7.840;2023-10-08T00:56:26;6.50;;;2.77;;
21806;SDS011;11065;50.786;7.840;2023-10-08T00:59:11;5.83;;;3.20;;
21806;SDS011;11065;50.786;7.840;2023-10-08T01:01:42;5.90;;;3.07;;
21806;SDS011;11065;50.786;7.840;2023-10-08T01:04:17;7.00;;;2.80;;
21806;SDS011;11065;50.786;7.840;2023-10-08T01:06:51;5.43;;;2.90;;
21806;SDS011;11065;50.786;7.840;2023-10-08T01:09:25;7.63;;;2.90;;
21806;SDS011;11065;50.786;7.840;2023-10-08T01:12:08;5.53;;;3.00;;
21806;SDS011;11065;50.786;7.840;2023-10-08T01:14:39;5.17;;;2.90;;
21806;SDS011;11065;50.786;7.840;2023-10-08T01:17:09;7.37;;;3.03;;
21806;SDS011;11065;50.786;7.840;2023-10-08T01:19:41;5.07;;;3.03;;
21806;SDS011;11065;50.786;7.840;2023-10-08T01:22:13;7.30;;;3.17;;
21806;SDS011;11065;50.786;7.840;2023-10-08T01:24:44;7.93;;;3.27;;
21806;SDS011;11065;50.786;7.840;2023-10-08T01:27:15;4.80;;;2.63;;
21806;SDS011;11065;50.786;7.840;2023-10-08T01:29:47;6.80;;;2.80;;
21806;SDS011;11065;50.786;7.840;2023-10-08T01:32:17;5.57;;;3.00;;
21806;SDS011;11065;50.786;7.840;2023-10-08T01:34:46;6.63;;;3.30;;
21806;SDS011;11065;50.786;7.840;2023-10-08T01:37:16;5.37;;;3.10;;
21806;SDS011;11065;50.786;7.840;2023-10-08T01:39:45;5.23;;;2.90;;
21806;SDS011;11065;50.786;7.840;2023-10-08T01:42:16;6.67;;;2.80;;
21806;SDS011;11065;50.786;7.840;2023-10-08T01:44:45;4.03;;;2.63;;
21806;SDS011;11065;50.786;7.840;2023-10-08T01:47:15;5.53;;;2.90;;
21806;SDS011;11065;50.786;7.840;2023-10-08T01:49:43;5.47;;;2.67;;
21806;SDS011;11065;50.786;7.840;2023-10-08T01:52:13;9.97;;;3.23;;
21806;SDS011;11065;50.786;7.840;2023-10-08T01:54:46;5.23;;;2.77;;
21806;SDS011;11065;50.786;7.840;2023-10-08T01:57:14;6.57;;;3.20;;
21806;SDS011;11065;50.786;7.840;2023-10-08T01:59:43;5.27;;;2.80;;
21806;SDS011;11065;50.786;7.840;2023-10-08T02:02:12;5.90;;;2.83;;
21806;SDS011;11065;50.786;7.840;2023-10-08T02:04:42;7.70;;;3.10;;
21806;SDS011;11065;50.786;7.840;2023-10-08T02:07:10;5.13;;;2.50;;
21806;SDS011;11065;50.786;7.840;2023-10-08T02:09:39;7.47;;;3.17;;
21806;SDS011;11065;50.786;7.840;2023-10-08T02:12:09;6.03;;;2.77;;
21806;SDS011;11065;50.786;7.840;2023-10-08T02:14:40;8.33;;;3.00;;
21806;SDS011;11065;50.786;7.840;2023-10-08T02:17:09;7.37;;;3.40;;
21806;SDS011;11065;50.786;7.840;2023-10-08T02:19:39;6.13;;;3.13;;
21806;SDS011;11065;50.786;7.840;2023-10-08T02:22:07;5.43;;;3.07;;
21806;SDS011;11065;50.786;7.840;2023-10-08T02:24:36;7.23;;;4.27;;
21806;SDS011;11065;50.786;7.840;2023-10-08T02:27:04;5.77;;;2.93;;
21806;SDS011;11065;50.786;7.840;2023-10-08T02:29:34;5.20;;;2.87;;
21806;SDS011;11065;50.786;7.840;2023-10-08T02:32:02;5.90;;;2.90;;
21806;SDS011;11065;50.786;7.840;2023-10-08T02:34:31;5.23;;;2.90;;
21806;SDS011;11065;50.786;7.840;2023-10-08T02:36:59;5.37;;;2.97;;
21806;SDS011;11065;50.786;7.840;2023-10-08T02:39:29;5.23;;;3.13;;
21806;SDS011;11065;50.786;7.840;2023-10-08T02:41:58;5.30;;;2.60;;
21806;SDS011;11065;50.786;7.840;2023-10-08T02:44:26;5.33;;;2.60;;
21806;SDS011;11065;50.786;7.840;2023-10-08T02:46:56;6.40;;;3.03;;
21806;SDS011;11065;50.786;7.840;2023-10-08T02:49:24;6.97;;;2.87;;
21806;SDS011;11065;50.786;7.840;2023-10-08T02:51:56;6.93;;;3.00;;
21806;SDS011;11065;50.786;7.840;2023-10-08T02:54:24;4.93;;;2.93;;
21806;SDS011;11065;50.786;7.840;2023-10-08T02:56:59;7.37;;;2.50;;
21806;SDS011;11065;50.786;7.840;2023-10-08T02:59:30;6.73;;;2.83;;
21806;SDS011;11065;50.786;7.840;2023-10-08T03:02:09;5.33;;;2.73;;
21806;SDS011;11065;50.786;7.840;2023-10-08T03:04:41;5.67;;;3.47;;
21806;SDS011;11065;50.786;7.840;2023-10-08T03:07:12;6.43;;;3.53;;
21806;SDS011;11065;50.786;7.840;2023-10-08T03:09:49;7.20;;;3.10;;
21806;SDS011;11065;50.786;7.840;2023-10-08T03:12:29;5.97;;;3.13;;
21806;SDS011;11065;50.786;7.840;2023-10-08T03:14:59;6.83;;;2.90;;
21806;SDS011;11065;50.786;7.840;2023-10-08T03:17:41;5.60;;;3.20;;
21806;SDS011;11065;50.786;7.840;2023-10-08T03:20:16;7.37;;;3.40;;
21806;SDS011;11065;50.786;7.840;2023-10-08T03:23:05;6.90;;;2.97;;
21806;SDS011;11065;50.786;7.840;2023-10-08T03:25:39;5.20;;;2.67;;
21806;SDS011;11065;50.786;7.840;2023-10-08T03:28:08;5.50;;;3.20;;
21806;SDS011;11065;50.786;7.840;2023-10-08T03:30:39;4.50;;;2.53;;
21806;SDS011;11065;50.786;7.840;2023-10-08T03:33:17;5.60;;;2.93;;
21806;SDS011;11065;50.786;7.840;2023-10-08T03:35:50;6.70;;;3.20;;
21806;SDS011;11065;50.786;7.840;2023-10-08T03:38:21;9.00;;;3.73;;
21806;SDS011;11065;50.786;7.840;2023-10-08T03:40:54;8.70;;;3.33;;
21806;SDS011;11065;50.786;7.840;2023-10-08T03:43:35;6.10;;;3.07;;
21806;SDS011;11065;50.786;7.840;2023-10-08T03:46:13;7.07;;;3.30;;
21806;SDS011;11065;50.786;7.840;2023-10-08T03:48:43;5.17;;;3.10;;
21806;SDS011;11065;50.786;7.840;2023-10-08T03:51:11;8.43;;;3.40;;
21806;SDS011;11065;50.786;7.840;2023-10-08T03:53:40;5.10;;;3.17;;
21806;SDS011;11065;50.786;7.840;2023-10-08T03:56:25;5.27;;;2.83;;
21806;SDS011;11065;50.786;7.840;2023-10-08T03:58:56;5.77;;;3.23;;
21806;SDS011;11065;50.786;7.840;2023-10-08T04:01:26;5.07;;;3.03;;
21806;SDS011;11065;50.786;7.840;2023-10-08T04:04:00;6.47;;;3.13;;
21806;SDS011;11065;50.786;7.840;2023-10-08T04:06:28;8.60;;;3.30;;
21806;SDS011;11065;50.786;7.840;2023-10-08T04:08:57;6.60;;;3.43;;
21806;SDS011;11065;50.786;7.840;2023-10-08T04:11:38;5.67;;;3.40;;
21806;SDS011;11065;50.786;7.840;2023-10-08T04:14:19;6.60;;;2.83;;
21806;SDS011;11065;50.786;7.840;2023-10-08T04:16:47;7.27;;;3.50;;
21806;SDS011;11065;50.786;7.840;2023-10-08T04:19:19;5.47;;;2.83;;
21806;SDS011;11065;50.786;7.840;2023-10-08T04:21:53;7.10;;;3.50;;
21806;SDS011;11065;50.786;7.840;2023-10-08T04:24:21;9.13;;;2.97;;
21806;SDS011;11065;50.786;7.840;2023-10-08T04:26:55;5.20;;;3.10;;
21806;SDS011;11065;50.786;7.840;2023-10-08T04:29:25;6.53;;;2.67;;
21806;SDS011;11065;50.786;7.840;2023-10-08T04:31:58;7.63;;;2.93;;
21806;SDS011;11065;50.786;7.840;2023-10-08T04:34:35;6.80;;;3.27;;
21806;SDS011;11065;50.786;7.840;2023-10-08T04:37:03;7.37;;;3.33;;
21806;SDS011;11065;50.786;7.840;2023-10-08T04:39:39;6.67;;;3.07;;
21806;SDS011;11065;50.786;7.840;2023-10-08T04:42:13;5.67;;;2.73;;
21806;SDS011;11065;50.786;7.840;2023-10-08T04:44:51;6.57;;;3.07;;
21806;SDS011;11065;50.786;7.840;2023-10-08T04:47:20;9.00;;;3.10;;
21806;SDS011;11065;50.786;7.840;2023-10-08T04:50:00;5.70;;;3.30;;
21806;SDS011;11065;50.786;7.840;2023-10-08T04:52:31;7.30;;;3.47;;
21806;SDS011;11065;50.786;7.840;2023-10-08T04:55:00;7.17;;;3.10;;
21806;SDS011;11065;50.786;7.840;2023-10-08T04:57:39;7.43;;;3.30;;
21806;SDS011;11065;50.786;7.840;2023-10-08T05:00:09;6.47;;;3.10;;
21806;SDS011;11065;50.786;7.840;2023-10-08T05:02:41;6.13;;;3.40;;
21806;SDS011;11065;50.786;7.840;2023-10-08T05:05:18;5.57;;;3.00;;
21806;SDS011;11065;50.786;7.840;2023-10-08T05:07:49;6.13;;;2.97;;
21806;SDS011;11065;50.786;7.840;2023-10-08T05:10:35;5.83;;;3.03;;
21806;SDS011;11065;50.786;7.840;2023-10-08T05:13:27;5.27;;;2.83;;
21806;SDS011;11065;50.786;7.840;2023-10-08T05:16:01;7.53;;;3.07;;
21806;SDS011;11065;50.786;7.840;2023-10-08T05:18:56;6.30;;;2.90;;
21806;SDS011;11065;50.786;7.840;2023-10-08T05:21:53;5.57;;;3.07;;
21806;SDS011;11065;50.786;7.840;2023-10-08T05:24:44;6.40;;;3.23;;
21806;SDS011;11065;50.786;7.840;2023-10-08T05:27:33;4.73;;;2.80;;
21806;SDS011;11065;50.786;7.840;2023-10-08T05:30:23;5.50;;;3.00;;
21806;SDS011;11065;50.786;7.840;2023-10-08T05:33:04;6.63;;;3.40;;
21806;SDS011;11065;50.786;7.840;2023-10-08T05:35:39;4.67;;;2.87;;
21806;SDS011;11065;50.786;7.840;2023-10-08T05:38:19;6.37;;;3.30;;
21806;SDS011;11065;50.786;7.840;2023-10-08T05:41:04;10.10;;;3.57;;
21806;SDS011;11065;50.786;7.840;2023-10-08T05:43:43;7.47;;;3.50;;
21806;SDS011;11065;50.786;7.840;2023-10-08T05:46:40;5.57;;;3.20;;
21806;SDS011;11065;50.786;7.840;2023-10-08T05:49:16;6.40;;;3.57;;
21806;SDS011;11065;50.786;7.840;2023-10-08T05:52:01;5.73;;;3.13;;
21806;SDS011;11065;50.786;7.840;2023-10-08T05:54:53;6.47;;;3.70;;
21806;SDS011;11065;50.786;7.840;2023-10-08T05:57:41;6.77;;;3.50;;
21806;SDS011;11065;50.786;7.840;2023-10-08T06:00:19;6.10;;;3.50;;
21806;SDS011;11065;50.786;7.840;2023-10-08T06:03:04;7.77;;;3.30;;
21806;SDS011;11065;50.786;7.840;2023-10-08T06:05:59;5.43;;;3.10;;
21806;SDS011;11065;50.786;7.840;2023-10-08T06:08:48;5.40;;;2.70;;
21806;SDS011;11065;50.786;7.840;2023-10-08T06:11:20;6.13;;;3.27;;
21806;SDS011;11065;50.786;7.840;2023-10-08T06:14:02;4.83;;;3.03;;
21806;SDS011;11065;50.786;7.840;2023-10-08T06:16:40;6.10;;;3.73;;
21806;SDS011;11065;50.786;7.840;2023-10-08T06:19:08;6.23;;;3.43;;
21806;SDS011;11065;50.786;7.840;2023-10-08T06:21:38;5.87;;;3.23;;
21806;SDS011;11065;50.786;7.840;2023-10-08T06:24:06;5.77;;;3.20;;
21806;SDS011;11065;50.786;7.840;2023-10-08T06:26:38;5.53;;;3.27;;
21806;SDS011;11065;50.786;7.840;2023-10-08T06:29:09;6.80;;;3.57;;
21806;SDS011;11065;50.786;7.840;2023-10-08T06:31:54;7.60;;;3.30;;
21806;SDS011;11065;50.786;7.840;2023-10-08T06:34:23;5.73;;;3.23;;
21806;SDS011;11065;50.786;7.840;2023-10-08T06:36:55;6.40;;;3.27;;
21806;SDS011;11065;50.786;7.840;2023-10-08T06:39:51;5.13;;;3.10;;
21806;SDS011;11065;50.786;7.840;2023-10-08T06:42:21;6.57;;;3.30;;
21806;SDS011;11065;50.786;7.840;2023-10-08T06:44:53;13.00;;;4.07;;
21806;SDS011;11065;50.786;7.840;2023-10-08T06:47:24;7.20;;;3.60;;
21806;SDS011;11065;50.786;7.840;2023-10-08T06:49:53;6.17;;;3.50;;
21806;SDS011;11065;50.786;7.840;2023-10-08T06:52:21;8.17;;;3.97;;
21806;SDS011;11065;50.786;7.840;2023-10-08T06:54:49;8.37;;;4.43;;
21806;SDS011;11065;50.786;7.840;2023-10-08T06:57:20;6.70;;;3.47;;
21806;SDS011;11065;50.786;7.840;2023-10-08T06:59:53;8.57;;;4.40;;
21806;SDS011;11065;50.786;7.840;2023-10-08T07:02:21;7.10;;;4.07;;
21806;SDS011;11065;50.786;7.840;2023-10-08T07:04:50;7.20;;;3.97;;
21806;SDS011;11065;50.786;7.840;2023-10-08T07:07:18;7.13;;;4.40;;
21806;SDS011;11065;50.786;7.840;2023-10-08T07:09:46;7.87;;;4.33;;
21806;SDS011;11065;50.786;7.840;2023-10-08T07:12:17;7.17;;;4.03;;
21806;SDS011;11065;50.786;7.840;2023-10-08T07:14:46;8.97;;;4.30;;
21806;SDS011;11065;50.786;7.840;2023-10-08T07:17:14;9.93;;;4.57;;
21806;SDS011;11065;50.786;7.840;2023-10-08T07:19:46;6.57;;;4.23;;
21806;SDS011;11065;50.786;7.840;2023-10-08T07:22:17;6.40;;;4.13;;
21806;SDS011;11065;50.786;7.840;2023-10-08T07:24:49;8.20;;;4.00;;
21806;SDS011;11065;50.786;7.840;2023-10-08T07:27:18;7.43;;;4.37;;
21806;SDS011;11065;50.786;7.840;2023-10-08T07:29:49;10.10;;;4.50;;
21806;SDS011;11065;50.786;7.840;2023-10-08T07:32:21;5.87;;;3.60;;
21806;SDS011;11065;50.786;7.840;2023-10-08T07:34:53;7.63;;;4.00;;
21806;SDS011;11065;50.786;7.840;2023-10-08T07:37:40;7.57;;;3.80;;
21806;SDS011;11065;50.786;7.840;2023-10-08T07:40:09;8.43;;;3.83;;
21806;SDS011;11065;50.786;7.840;2023-10-08T07:42:39;6.53;;;4.17;;
21806;SDS011;11065;50.786;7.840;2023-10-08T07:45:08;6.93;;;4.00;;
21806;SDS011;11065;50.786;7.840;2023-10-08T07:47:43;8.53;;;4.07;;
21806;SDS011;11065;50.786;7.840;2023-10-08T07:50:12;8.00;;;3.67;;
21806;SDS011;11065;50.786;7.840;2023-10-08T07:52:40;8.00;;;3.67;;
21806;SDS011;11065;50.786;7.840;2023-10-08T07:55:11;9.37;;;3.90;;
21806;SDS011;11065;50.786;7.840;2023-10-08T07:57:43;7.53;;;4.07;;
21806;SDS011;11065;50.786;7.840;2023-10-08T08:00:13;6.63;;;3.20;;
21806;SDS011;11065;50.786;7.840;2023-10-08T08:02:50;6.37;;;3.50;;
21806;SDS011;11065;50.786;7.840;2023-10-08T08:05:18;8.53;;;4.10;;
21806;SDS011;11065;50.786;7.840;2023-10-08T08:07:47;7.93;;;4.27;;
21806;SDS011;11065;50.786;7.840;2023-10-08T08:10:16;6.07;;;3.10;;
21806;SDS011;11065;50.786;7.840;2023-10-08T08:12:45;5.70;;;3.50;;
21806;SDS011;11065;50.786;7.840;2023-10-08T08:15:19;6.57;;;3.27;;
21806;SDS011;11065;50.786;7.840;2023-10-08T08:17:47;6.37;;;3.13;;
21806;SDS011;11065;50.786;7.840;2023-10-08T08:20:15;7.20;;;3.40;;
21806;SDS011;11065;50.786;7.840;2023-10-08T08:22:48;7.47;;;3.17;;
21806;SDS011;11065;50.786;7.840;2023-10-08T08:25:20;7.60;;;3.50;;
21806;SDS011;11065;50.786;7.840;2023-10-08T08:28:00;5.83;;;3.40;;
21806;SDS011;11065;50.786;7.840;2023-10-08T08:30:33;7.17;;;3.87;;
21806;SDS011;11065;50.786;7.840;2023-10-08T08:33:03;6.87;;;3.53;;
21806;SDS011;11065;50.786;7.840;2023-10-08T08:35:36;7.60;;;3.93;;
21806;SDS011;11065;50.786;7.840;2023-10-08T08:38:04;6.30;;;3.63;;
21806;SDS011;11065;50.786;7.840;2023-10-08T08:40:35;7.13;;;3.77;;
21806;SDS011;11065;50.786;7.840;2023-10-08T08:43:03;7.47;;;3.60;;
21806;SDS011;11065;50.786;7.840;2023-10-08T08:45:35;7.07;;;3.53;;
21806;SDS011;11065;50.786;7.840;2023-10-08T08:48:07;6.20;;;3.17;;
21806;SDS011;11065;50.786;7.840;2023-10-08T08:50:35;9.30;;;3.90;;
21806;SDS011;11065;50.786;7.840;2023-10-08T08:53:06;7.43;;;4.30;;
21806;SDS011;11065;50.786;7.840;2023-10-08T08:55:35;7.77;;;4.27;;
21806;SDS011;11065;50.786;7.840;2023-10-08T08:58:03;8.40;;;4.90;;
21806;SDS011;11065;50.786;7.840;2023-10-08T09:00:38;6.63;;;4.00;;
21806;SDS011;11065;50.786;7.840;2023-10-08T09:03:07;6.73;;;3.87;;
21806;SDS011;11065;50.786;7.840;2023-10-08T09:05:39;8.23;;;4.07;;
21806;SDS011;11065;50.786;7.840;2023-10-08T09:08:08;9.70;;;4.67;;
21806;SDS011;11065;50.786;7.840;2023-10-08T09:10:36;10.97;;;4.03;;
21806;SDS011;11065;50.786;7.840;2023-10-08T09:13:18;6.67;;;3.63;;
21806;SDS011;11065;50.786;7.840;2023-10-08T09:15:50;8.17;;;4.27;;
21806;SDS011;11065;50.786;7.840;2023-10-08T09:18:22;9.27;;;4.30;;
21806;SDS011;11065;50.786;7.840;2023-10-08T09:20:53;8.43;;;4.30;;
21806;SDS011;11065;50.786;7.840;2023-10-08T09:23:22;10.30;;;4.03;;
21806;SDS011;11065;50.786;7.840;2023-10-08T09:25:51;7.97;;;3.80;;
21806;SDS011;11065;50.786;7.840;2023-10-08T09:28:29;8.13;;;3.93;;
21806;SDS011;11065;50.786;7.840;2023-10-08T09:31:00;11.00;;;4.73;;
21806;SDS011;11065;50.786;7.840;2023-10-08T09:33:28;8.63;;;4.50;;
21806;SDS011;11065;50.786;7.840;2023-10-08T09:35:56;10.27;;;4.60;;
21806;SDS011;11065;50.786;7.840;2023-10-08T09:38:29;12.13;;;4.70;;
21806;SDS011;11065;50.786;7.840;2023-10-08T09:40:57;12.43;;;6.27;;
21806;SDS011;11065;50.786;7.840;2023-10-08T09:43:28;10.13;;;5.70;;
21806;SDS011;11065;50.786;7.840;2023-10-08T09:46:03;11.27;;;5.50;;
21806;SDS011;11065;50.786;7.840;2023-10-08T09:48:36;12.47;;;5.73;;
21806;SDS011;11065;50.786;7.840;2023-10-08T09:51:05;8.73;;;4.27;;
21806;SDS011;11065;50.786;7.840;2023-10-08T09:53:41;11.87;;;4.80;;
21806;SDS011;11065;50.786;7.840;2023-10-08T09:56:19;10.77;;;4.73;;
21806;SDS011;11065;50.786;7.840;2023-10-08T09:58:47;12.67;;;6.10;;
21806;SDS011;11065;50.786;7.840;2023-10-08T10:01:18;9.67;;;4.73;;
21806;SDS011;11065;50.786;7.840;2023-10-08T10:03:48;8.57;;;5.10;;
21806;SDS011;11065;50.786;7.840;2023-10-08T10:06:18;10.57;;;5.23;;
21806;SDS011;11065;50.786;7.840;2023-10-08T10:08:47;10.13;;;5.77;;
21806;SDS011;11065;50.786;7.840;2023-10-08T10:11:15;13.20;;;5.87;;
21806;SDS011;11065;50.786;7.840;2023-10-08T10:13:44;13.40;;;5.60;;
21806;SDS011;11065;50.786;7.840;2023-10-08T10:16:17;14.10;;;5.50;;
21806;SDS011;11065;50.786;7.840;2023-10-08T10:18:49;10.20;;;5.47;;
21806;SDS011;11065;50.786;7.840;2023-10-08T10:21:27;13.80;;;6.27;;
21806;SDS011;11065;50.786;7.840;2023-10-08T10:23:57;13.43;;;5.30;;
21806;SDS011;11065;50.786;7.840;2023-10-08T10:26:26;12.10;;;6.20;;
21806;SDS011;11065;50.786;7.840;2023-10-08T10:31:49;12.37;;;6.37;;
21806;SDS011;11065;50.786;7.840;2023-10-08T10:34:21;14.10;;;6.43;;
21806;SDS011;11065;50.786;7.840;2023-10-08T10:36:53;12.03;;;5.60;;
21806;SDS011;11065;50.786;7.840;2023-10-08T10:39:29;13.83;;;5.87;;
21806;SDS011;11065;50.786;7.840;2023-10-08T10:42:00;13.37;;;6.60;;
21806;SDS011;11065;50.786;7.840;2023-10-08T10:44:33;12.87;;;6.47;;
21806;SDS011;11065;50.786;7.840;2023-10-08T10:47:04;13.97;;;6.63;;
21806;SDS011;11065;50.786;7.840;2023-10-08T10:49:54;10.70;;;5.97;;
21806;SDS011;11065;50.786;7.840;2023-10-08T10:52:42;13.43;;;6.30;;
21806;SDS011;11065;50.786;7.840;2023-10-08T10:55:18;14.00;;;6.80;;
21806;SDS011;11065;50.786;7.840;2023-10-08T10:57:58;13.07;;;7.00;;
21806;SDS011;11065;50.786;7.840;2023-10-08T11:00:41;13.77;;;7.07;;
21806;SDS011;11065;50.786;7.840;2023-10-08T11:03:24;11.93;;;6.72;;
21806;SDS011;11065;50.786;7.840;2023-10-08T11:05:56;15.82;;;7.90;;
21806;SDS011;11065;50.786;7.840;2023-10-08T11:08:32;11.80;;;6.38;;
21806;SDS011;11065;50.786;7.840;2023-10-08T11:11:02;13.25;;;6.90;;
21806;SDS011;11065;50.786;7.840;2023-10-08T11:13:36;10.05;;;5.88;;
21806;SDS011;11065;50.786;7.840;2023-10-08T11:16:07;11.60;;;6.20;;
21806;SDS011;11065;50.786;7.840;2023-10-08T11:18:45;11.55;;;6.90;;
21806;SDS011;11065;50.786;7.840;2023-10-08T11:21:17;10.23;;;6.57;;
21806;SDS011;11065;50.786;7.840;2023-10-08T11:23:50;11.98;;;6.65;;
21806;SDS011;11065;50.786;7.840;2023-10-08T11:26:25;13.82;;;6.93;;
21806;SDS011;11065;50.786;7.840;2023-10-08T11:29:02;13.52;;;7.07;;
21806;SDS011;11065;50.786;7.840;2023-10-08T11:31:31;11.70;;;7.20;;
21806;SDS011;11065;50.786;7.840;2023-10-08T11:34:03;14.15;;;7.57;;
21806;SDS011;11065;50.786;7.840;2023-10-08T11:36:36;14.50;;;6.90;;
21806;SDS011;11065;50.786;7.840;2023-10-08T11:39:15;14.77;;;7.82;;
21806;SDS011;11065;50.786;7.840;2023-10-08T11:41:55;13.23;;;7.47;;
21806;SDS011;11065;50.786;7.840;2023-10-08T11:44:30;13.45;;;7.10;;
21806;SDS011;11065;50.786;7.840;2023-10-08T11:47:03;14.52;;;8.13;;
21806;SDS011;11065;50.786;7.840;2023-10-08T11:49:41;14.90;;;8.10;;
21806;SDS011;11065;50.786;7.840;2023-10-08T11:52:17;14.65;;;7.78;;
21806;SDS011;11065;50.786;7.840;2023-10-08T11:54:48;15.57;;;7.85;;
21806;SDS011;11065;50.786;7.840;2023-10-08T11:57:19;12.27;;;7.43;;
21806;SDS011;11065;50.786;7.840;2023-10-08T11:59:49;14.85;;;8.10;;
21806;SDS011;11065;50.786;7.840;2023-10-08T12:02:21;14.80;;;7.43;;
21806;SDS011;11065;50.786;7.840;2023-10-08T12:04:50;13.13;;;8.10;;
21806;SDS011;11065;50.786;7.840;2023-10-08T12:07:19;14.30;;;8.00;;
21806;SDS011;11065;50.786;7.840;2023-10-08T12:09:49;14.50;;;7.70;;
21806;SDS011;11065;50.786;7.840;2023-10-08T12:12:20;13.23;;;8.20;;
21806;SDS011;11065;50.786;7.840;2023-10-08T12:14:49;12.82;;;7.50;;
21806;SDS011;11065;50.786;7.840;2023-10-08T12:17:21;15.32;;;8.30;;
21806;SDS011;11065;50.786;7.840;2023-10-08T12:19:59;14.52;;;7.85;;
21806;SDS011;11065;50.786;7.840;2023-10-08T12:22:38;13.60;;;7.78;;
21806;SDS011;11065;50.786;7.840;2023-10-08T12:25:06;10.77;;;6.97;;
21806;SDS011;11065;50.786;7.840;2023-10-08T12:27:35;12.55;;;7.90;;
21806;SDS011;11065;50.786;7.840;2023-10-08T12:30:03;12.18;;;7.32;;
21806;SDS011;11065;50.786;7.840;2023-10-08T12:32:36;13.00;;;8.13;;
21806;SDS011;11065;50.786;7.840;2023-10-08T12:35:09;16.05;;;9.40;;
21806;SDS011;11065;50.786;7.840;2023-10-08T12:37:39;16.55;;;8.32;;
21806;SDS011;11065;50.786;7.840;2023-10-08T12:40:07;15.23;;;9.00;;
21806;SDS011;11065;50.786;7.840;2023-10-08T12:42:49;15.32;;;8.52;;
21806;SDS011;11065;50.786;7.840;2023-10-08T12:45:18;12.85;;;8.18;;
21806;SDS011;11065;50.786;7.840;2023-10-08T12:47:48;15.77;;;8.55;;
21806;SDS011;11065;50.786;7.840;2023-10-08T12:50:19;13.75;;;8.43;;
21806;SDS011;11065;50.786;7.840;2023-10-08T12:52:56;16.95;;;8.13;;
21806;SDS011;11065;50.786;7.840;2023-10-08T12:55:27;13.73;;;8.20;;
21806;SDS011;11065;50.786;7.840;2023-10-08T12:57:57;12.57;;;8.48;;
21806;SDS011;11065;50.786;7.840;2023-10-08T13:00:32;17.42;;;8.75;;
21806;SDS011;11065;50.786;7.840;2023-10-08T13:03:00;17.13;;;8.32;;
21806;SDS011;11065;50.786;7.840;2023-10-08T13:05:33;13.55;;;8.43;;
21806;SDS011;11065;50.786;7.840;2023-10-08T13:08:01;14.43;;;8.35;;
21806;SDS011;11065;50.786;7.840;2023-10-08T13:10:35;16.60;;;8.55;;
21806;SDS011;11065;50.786;7.840;2023-10-08T13:13:07;13.95;;;7.72;;
21806;SDS011;11065;50.786;7.840;2023-10-08T13:15:37;18.02;;;9.65;;
21806;SDS011;11065;50.786;7.840;2023-10-08T13:18:05;15.43;;;8.35;;
21806;SDS011;11065;50.786;7.840;2023-10-08T13:20:36;15.98;;;8.75;;
21806;SDS011;11065;50.786;7.840;2023-10-08T13:23:07;15.20;;;8.25;;
21806;SDS011;11065;50.786;7.840;2023-10-08T13:25:35;12.23;;;7.85;;
21806;SDS011;11065;50.786;7.840;2023-10-08T13:28:05;14.88;;;8.02;;
21806;SDS011;11065;50.786;7.840;2023-10-08T13:30:36;12.15;;;7.47;;
21806;SDS011;11065;50.786;7.840;2023-10-08T13:33:04;14.18;;;9.13;;
21806;SDS011;11065;50.786;7.840;2023-10-08T13:35:36;15.50;;;8.32;;
21806;SDS011;11065;50.786;7.840;2023-10-08T13:38:04;14.80;;;8.35;;
21806;SDS011;11065;50.786;7.840;2023-10-08T13:40:36;13.55;;;8.57;;
21806;SDS011;11065;50.786;7.840;2023-10-08T13:43:09;14.75;;;8.32;;
21806;SDS011;11065;50.786;7.840;2023-10-08T13:45:38;13.73;;;7.90;;
21806;SDS011;11065;50.786;7.840;2023-10-08T13:48:06;13.38;;;7.53;;
21806;SDS011;11065;50.786;7.840;2023-10-08T13:50:41;10.82;;;6.90;;
21806;SDS011;11065;50.786;7.840;2023-10-08T13:53:10;11.25;;;7.30;;
21806;SDS011;11065;50.786;7.840;2023-10-08T13:55:39;19.35;;;8.82;;
21806;SDS011;11065;50.786;7.840;2023-10-08T13:58:11;13.60;;;8.15;;
21806;SDS011;11065;50.786;7.840;2023-10-08T14:00:39;16.95;;;8.27;;
21806;SDS011;11065;50.786;7.840;2023-10-08T14:03:07;14.45;;;8.20;;
21806;SDS011;11065;50.786;7.840;2023-10-08T14:05:36;19.15;;;8.57;;
21806;SDS011;11065;50.786;7.840;2023-10-08T14:08:06;13.80;;;8.20;;
21806;SDS011;11065;50.786;7.840;2023-10-08T14:10:40;16.23;;;7.75;;
21806;SDS011;11065;50.786;7.840;2023-10-08T14:13:09;14.10;;;8.10;;
21806;SDS011;11065;50.786;7.840;2023-10-08T14:15:37;12.43;;;7.35;;
21806;SDS011;11065;50.786;7.840;2023-10-08T14:18:10;11.77;;;6.90;;
21806;SDS011;11065;50.786;7.840;2023-10-08T14:20:43;13.45;;;7.80;;
21806;SDS011;11065;50.786;7.840;2023-10-08T14:23:17;15.95;;;8.38;;
21806;SDS011;11065;50.786;7.840;2023-10-08T14:25:48;12.50;;;7.53;;
21806;SDS011;11065;50.786;7.840;2023-10-08T14:28:18;14.65;;;7.72;;
21806;SDS011;11065;50.786;7.840;2023-10-08T14:30:49;13.05;;;7.00;;
21806;SDS011;11065;50.786;7.840;2023-10-08T14:33:21;15.45;;;8.07;;
21806;SDS011;11065;50.786;7.840;2023-10-08T14:35:56;14.73;;;8.32;;
21806;SDS011;11065;50.786;7.840;2023-10-08T14:38:43;11.60;;;7.63;;
21806;SDS011;11065;50.786;7.840;2023-10-08T14:41:28;11.77;;;7.07;;
21806;SDS011;11065;50.786;7.840;2023-10-08T14:44:13;15.10;;;7.97;;
21806;SDS011;11065;50.786;7.840;2023-10-08T14:46:41;12.70;;;6.97;;
21806;SDS011;11065;50.786;7.840;2023-10-08T14:49:10;12.63;;;7.63;;
21806;SDS011;11065;50.786;7.840;2023-10-08T14:51:39;12.25;;;8.00;;
21806;SDS011;11065;50.786;7.840;2023-10-08T14:54:08;12.50;;;7.18;;
21806;SDS011;11065;50.786;7.840;2023-10-08T14:56:36;14.15;;;7.68;;
21806;SDS011;11065;50.786;7.840;2023-10-08T14:59:05;15.00;;;7.40;;
21806;SDS011;11065;50.786;7.840;2023-10-08T15:01:33;12.57;;;7.82;;
21806;SDS011;11065;50.786;7.840;2023-10-08T15:04:01;13.20;;;7.28;;
21806;SDS011;11065;50.786;7.840;2023-10-08T15:06:31;12.85;;;7.60;;
21806;SDS011;11065;50.786;7.840;2023-10-08T15:08:59;14.35;;;7.80;;
21806;SDS011;11065;50.786;7.840;2023-10-08T15:11:28;13.57;;;7.25;;
21806;SDS011;11065;50.786;7.840;2023-10-08T15:13:57;12.98;;;7.30;;
21806;SDS011;11065;50.786;7.840;2023-10-08T15:16:25;11.27;;;6.82;;
21806;SDS011;11065;50.786;7.840;2023-10-08T15:18:54;15.68;;;7.75;;